EST,Max TemperatureF,Mean TemperatureF,Min TemperatureF,Max Dew PointF,MeanDew PointF,Min DewpointF,Max Humidity, Mean Humidity, Min Humidity, Max Sea Level PressureIn, Mean Sea Level PressureIn, Min Sea Level PressureIn, Max VisibilityMiles, Mean VisibilityMiles, Min VisibilityMiles, Max Wind SpeedMPH, Mean Wind SpeedMPH, Max Gust SpeedMPH,PrecipitationIn, CloudCover, Events, WindDirDegrees
2013-1-1,37,31,24,27,20,8,70,58,48,30.00,29.89,29.81,10,10,9,20,9,30,0.00,5,,291
2013-1-2,28,24,19,15,12,8,68,57,49,30.16,30.06,29.99,10,10,10,17,11,28,0.00,0,,296
2013-1-3,30,22,14,16,12,5,69,59,45,30.19,30.13,30.06,10,10,10,13,8,,0.00,1,,301
2013-1-4,37,32,28,21,19,16,67,57,48,30.06,30.00,29.93,10,10,10,13,8,24,0.00,2,,260
2013-1-5,41,34,26,24,20,16,81,58,45,30.26,30.17,30.00,10,10,10,17,10,28,0.00,2,,288
2013-1-6,44,38,33,29,25,21,82,63,49,30.21,30.06,29.97,10,8,4,8,4,,0.00,4,Snow,261
2013-1-7,44,35,26,28,23,19,78,60,37,30.40,30.27,30.05,10,10,10,16,7,22,0.00,0,,297
2013-1-8,46,37,28,28,25,21,76,61,47,30.43,30.37,30.34,10,9,5,8,2,,0.00,0,,243
2013-1-9,46,36,27,34,30,23,89,73,58,30.38,30.26,30.13,10,6,4,14,3,18,0.00,2,,261
2013-1-10,46,40,33,27,22,20,64,48,35,30.54,30.43,30.21,10,10,10,18,11,30,0.00,0,,306
2013-1-11,43,36,30,42,32,21,100,81,52,30.51,30.30,30.09,10,5,0,8,3,,0.42,4,Fog-Rain,91
2013-1-12,45,44,42,43,42,39,100,94,87,30.18,30.13,30.07,10,2,0,7,4,,0.05,8,Fog-Rain,72
2013-1-13,46,43,41,45,42,39,100,96,93,30.15,30.08,30.01,1,0,0,8,2,,0.01,8,Fog,141
2013-1-14,55,46,35,50,42,27,100,82,57,30.29,30.09,29.94,10,5,0,20,6,,0.07,6,Fog-Rain,323
2013-1-15,37,35,33,30,25,22,89,68,57,30.34,30.28,30.23,10,10,7,12,7,,0.11,7,Rain,4
2013-1-16,34,32,30,31,30,27,96,90,80,30.22,30.00,29.85,8,4,1,10,5,,0.44,7,Rain-Snow,1
2013-1-17,39,34,30,32,25,17,92,66,55,30.09,30.02,29.90,10,10,7,18,7,26,0.00,4,,305
2013-1-18,28,24,21,12,7,3,63,48,37,30.48,30.34,30.04,10,10,9,17,11,29,0.00,3,Snow,333
2013-1-19,48,38,27,26,21,10,64,49,36,30.39,30.16,29.92,10,10,10,12,6,24,0.00,3,,219
2013-1-20,51,40,28,27,20,8,62,45,24,30.01,29.81,29.67,10,10,10,25,11,38,0.00,0,,272
2013-1-21,30,26,21,19,12,7,74,56,43,30.09,29.97,29.82,10,10,3,12,6,,0.00,5,Snow,260
2013-1-22,24,18,10,10,-1,-11,59,43,30,30.19,30.02,29.82,10,10,10,24,18,33,0.00,2,,299
2013-1-23,19,14,9,-1,-6,-8,64,44,33,30.24,30.19,30.15,10,10,10,18,11,25,0.00,1,,284
2013-1-24,21,14,7,1,-2,-5,70,51,32,30.38,30.24,30.14,10,10,10,26,9,36,0.00,1,,320
2013-1-25,21,16,12,16,6,-1,86,63,37,30.40,30.24,30.05,10,7,0,17,8,26,0.04,3,Fog-Snow,276
2013-1-26,26,18,10,11,6,3,84,62,42,30.35,30.17,30.05,10,10,10,15,9,21,0.00,0,,313
2013-1-27,32,22,12,10,8,5,71,53,35,30.51,30.46,30.37,10,10,10,14,7,,0.00,0,,284
2013-1-28,33,27,21,31,23,12,96,80,55,30.48,30.24,30.01,10,4,1,8,3,,0.17,6,Rain-Snow,189
2013-1-29,41,37,33,38,34,31,100,91,79,30.16,30.10,29.99,6,2,0,10,5,,0.09,7,Fog-Rain,97
2013-1-30,53,44,36,52,46,35,100,95,88,30.07,29.70,29.38,2,1,0,14,6,22,0.06,8,Fog-Rain,145
2013-1-31,57,42,28,55,31,7,97,62,32,29.75,29.36,29.04,10,8,1,26,16,54,1.07,5,Rain-Thunderstorm,246